createdAt,value
2023-01-13T00:01:47.675Z,99307.45
2023-01-13T00:04:14.725Z,99304.81
2023-01-13T00:06:41.779Z,99303.23
2023-01-13T00:09:08.829Z,99304.48
2023-01-13T00:11:35.790Z,99304.03
2023-01-13T00:14:02.910Z,99305.44
2023-01-13T00:16:29.897Z,99307.79
2023-01-13T00:18:56.912Z,99315.10
2023-01-13T00:21:24.587Z,99313.24
2023-01-13T00:23:52.858Z,99310.30
2023-01-13T00:26:24.410Z,99312.52
2023-01-13T00:28:51.546Z,99315.38
2023-01-13T00:31:19.996Z,99318.58
2023-01-13T00:33:49.232Z,99320.41
2023-01-13T00:36:16.303Z,99321.07
2023-01-13T00:38:43.741Z,99317.92
2023-01-13T00:41:12.821Z,99320.00
2023-01-13T00:43:39.883Z,99322.20
2023-01-13T00:46:08.503Z,99321.95
2023-01-13T00:48:35.631Z,99323.13
2023-01-13T00:51:03.369Z,99324.89
2023-01-13T00:53:33.692Z,99320.41
2023-01-13T00:56:09.789Z,99315.46
2023-01-13T00:58:36.902Z,99312.94
2023-01-13T01:01:05.934Z,99312.23
2023-01-13T01:03:33.582Z,99307.95
2023-01-13T01:06:05.724Z,99302.93
2023-01-13T01:08:32.869Z,99298.38
2023-01-13T01:11:03.849Z,99292.73
2023-01-13T01:13:30.859Z,99290.46
2023-01-13T01:15:58.335Z,99289.48
2023-01-13T01:18:25.477Z,99285.40
2023-01-13T01:20:52.503Z,99281.02
2023-01-13T01:23:19.480Z,99278.16
2023-01-13T01:25:46.504Z,99273.67
2023-01-13T01:28:13.648Z,99273.09
2023-01-13T01:30:40.597Z,99274.55
2023-01-13T01:33:07.636Z,99277.02
2023-01-13T01:35:34.616Z,99278.72
2023-01-13T01:38:01.639Z,99279.08
2023-01-13T01:40:28.680Z,99275.17
2023-01-13T01:43:14.673Z,99273.45
2023-01-13T01:45:41.734Z,99268.72
2023-01-13T01:48:08.863Z,99263.63
2023-01-13T01:50:35.847Z,99265.30
2023-01-13T01:53:10.249Z,99262.51
2023-01-13T01:55:37.289Z,99258.70
2023-01-13T01:58:27.672Z,99251.80
2023-01-13T02:00:54.862Z,99247.19
2023-01-13T02:03:21.988Z,99245.83
2023-01-13T02:05:49.020Z,99247.09
2023-01-13T02:08:15.998Z,99256.27
2023-01-13T02:10:43.018Z,99257.60
2023-01-13T02:13:10.986Z,99256.90
2023-01-13T02:15:56.359Z,99251.81
2023-01-13T02:18:32.726Z,99246.69
2023-01-13T02:21:03.147Z,99242.75
2023-01-13T02:24:08.506Z,99250.80
2023-01-13T02:27:21.008Z,99255.35
2023-01-13T02:30:25.933Z,99259.00
2023-01-13T02:33:02.403Z,99259.95
2023-01-13T02:36:02.010Z,99254.45
2023-01-13T02:38:32.271Z,99251.58
2023-01-13T02:41:34.819Z,99250.69
2023-01-13T02:44:10.800Z,99249.15
2023-01-13T02:46:49.081Z,99249.80
2023-01-13T02:49:31.692Z,99249.27
2023-01-13T02:52:02.772Z,99244.11
2023-01-13T02:54:29.887Z,99240.17
2023-01-13T02:56:56.962Z,99236.58
2023-01-13T02:59:26.439Z,99232.77
2023-01-13T03:01:56.272Z,99239.05
2023-01-13T03:04:47.154Z,99237.56
2023-01-13T03:07:42.563Z,99236.67
2023-01-13T03:10:34.080Z,99231.65
2023-01-13T03:13:11.981Z,99231.65
2023-01-13T03:15:49.483Z,99235.27
2023-01-13T03:18:21.589Z,99232.02
2023-01-13T03:20:55.784Z,99231.01
2023-01-13T03:23:28.261Z,99229.52
2023-01-13T03:26:15.458Z,99227.06
2023-01-13T03:29:15.262Z,99218.18
2023-01-13T03:32:01.310Z,99216.05
2023-01-13T03:34:37.412Z,99215.88
2023-01-13T03:37:05.950Z,99218.20
2023-01-13T03:39:34.792Z,99219.27
2023-01-13T03:42:05.011Z,99220.41
2023-01-13T03:44:55.524Z,99221.10
2023-01-13T03:47:27.880Z,99216.48
2023-01-13T03:50:07.318Z,99211.48
2023-01-13T03:52:40.513Z,99211.08
2023-01-13T03:55:13.490Z,99210.36
2023-01-13T03:57:44.802Z,99213.48
2023-01-13T04:00:12.682Z,99217.02
2023-01-13T04:02:48.043Z,99218.36
2023-01-13T04:05:14.938Z,99220.30
2023-01-13T04:08:01.760Z,99216.58
2023-01-13T04:10:31.441Z,99211.31
2023-01-13T04:13:09.240Z,99211.70
2023-01-13T04:15:40.603Z,99211.19
2023-01-13T04:18:17.958Z,99206.27
2023-01-13T04:20:46.048Z,99205.16
2023-01-13T04:23:13.988Z,99209.34
2023-01-13T04:25:41.936Z,99203.96
2023-01-13T04:28:09.744Z,99202.27
2023-01-13T04:30:36.962Z,99201.51
2023-01-13T04:33:05.483Z,99202.42
2023-01-13T04:35:33.128Z,99206.64
2023-01-13T04:38:10.710Z,99208.40
2023-01-13T04:40:37.755Z,99205.19
2023-01-13T04:43:04.940Z,99203.98
2023-01-13T04:45:31.948Z,99203.64
2023-01-13T04:47:59.012Z,99199.45
2023-01-13T04:50:26.142Z,99201.77
2023-01-13T04:52:53.808Z,99204.92
2023-01-13T04:55:22.078Z,99206.01
2023-01-13T04:57:49.015Z,99203.24
2023-01-13T05:00:17.623Z,99201.93
2023-01-13T05:02:44.658Z,99206.46
2023-01-13T05:05:11.562Z,99211.17
2023-01-13T05:07:38.461Z,99216.13
2023-01-13T05:10:06.215Z,99215.56
2023-01-13T05:12:52.411Z,99216.83
2023-01-13T05:15:38.181Z,99215.10
2023-01-13T05:18:05.284Z,99219.36
2023-01-13T05:20:32.187Z,99223.98
2023-01-13T05:23:18.011Z,99217.16
2023-01-13T05:25:45.230Z,99215.91
2023-01-13T05:28:12.231Z,99207.85
2023-01-13T05:30:44.149Z,99204.47
2023-01-13T05:33:11.893Z,99209.39
2023-01-13T05:35:39.959Z,99208.11
2023-01-13T05:38:07.022Z,99212.69
2023-01-13T05:40:52.792Z,99213.92
2023-01-13T05:43:21.162Z,99221.79
2023-01-13T05:45:49.000Z,99222.80
2023-01-13T05:48:16.397Z,99210.84
2023-01-13T05:50:43.547Z,99209.30
2023-01-13T05:53:10.466Z,99202.59
2023-01-13T05:55:43.970Z,99202.70
2023-01-13T05:58:12.154Z,99207.09
2023-01-13T06:00:41.695Z,99213.71
2023-01-13T06:03:08.938Z,99215.02
2023-01-13T06:05:36.343Z,99213.41
2023-01-13T06:08:03.928Z,99217.09
2023-01-13T06:10:30.981Z,99221.60
2023-01-13T06:12:58.033Z,99219.23
2023-01-13T06:15:25.068Z,99221.33
2023-01-13T06:17:52.145Z,99223.15
2023-01-13T06:20:19.085Z,99221.08
2023-01-13T06:22:48.161Z,99221.17
2023-01-13T06:25:35.926Z,99220.89
2023-01-13T06:28:02.898Z,99235.64
2023-01-13T06:30:31.637Z,99233.97
2023-01-13T06:32:59.713Z,99239.42
2023-01-13T06:35:29.805Z,99244.13
2023-01-13T06:37:56.965Z,99243.25
2023-01-13T06:40:24.051Z,99242.92
2023-01-13T06:43:10.008Z,99244.13
2023-01-13T06:45:37.046Z,99248.73
2023-01-13T06:48:04.384Z,99245.27
2023-01-13T06:50:31.397Z,99244.20
2023-01-13T06:52:58.516Z,99247.16
2023-01-13T06:55:25.549Z,99248.80
2023-01-13T06:57:56.992Z,99252.44
2023-01-13T07:00:24.751Z,99256.54
2023-01-13T07:02:51.898Z,99258.16
2023-01-13T07:05:19.599Z,99256.59
2023-01-13T07:07:46.501Z,99251.09
2023-01-13T07:10:22.537Z,99247.28
2023-01-13T07:13:08.461Z,99244.23
2023-01-13T07:15:35.737Z,99249.14
2023-01-13T07:18:02.978Z,99256.57
2023-01-13T07:20:30.509Z,99257.17
2023-01-13T07:22:57.592Z,99252.76
2023-01-13T07:25:24.498Z,99253.02
2023-01-13T07:27:51.472Z,99253.23
2023-01-13T07:30:19.012Z,99257.78
2023-01-13T07:32:46.020Z,99258.91
2023-01-13T07:35:13.010Z,99256.49
2023-01-13T07:37:40.542Z,99255.59
2023-01-13T07:40:08.465Z,99257.13
2023-01-13T07:42:57.081Z,99261.11
2023-01-13T07:45:24.030Z,99264.63
2023-01-13T07:47:52.850Z,99266.28
2023-01-13T07:50:21.456Z,99267.88
2023-01-13T07:52:48.397Z,99268.35
2023-01-13T07:55:15.544Z,99258.84
2023-01-13T07:57:42.551Z,99256.06
2023-01-13T08:00:12.861Z,99252.67
2023-01-13T08:02:40.355Z,99246.73
2023-01-13T08:05:08.375Z,99248.27
2023-01-13T08:07:35.696Z,99245.66
2023-01-13T08:10:03.931Z,99240.65
2023-01-13T08:12:52.964Z,99240.61
2023-01-13T08:15:24.162Z,99237.59
2023-01-13T08:17:51.385Z,99238.46
2023-01-13T08:20:19.243Z,99242.00
2023-01-13T08:22:46.384Z,99246.69
2023-01-13T08:25:13.744Z,99248.96
2023-01-13T08:27:40.958Z,99243.81
2023-01-13T08:30:08.736Z,99242.39
2023-01-13T08:32:35.808Z,99241.73
2023-01-13T08:35:02.740Z,99246.11
2023-01-13T08:37:29.790Z,99244.96
2023-01-13T08:39:56.757Z,99247.45
2023-01-13T08:42:23.849Z,99246.37
2023-01-13T08:44:50.793Z,99239.35
2023-01-13T08:47:17.764Z,99237.36
2023-01-13T08:49:44.668Z,99235.17
2023-01-13T08:52:11.633Z,99236.09
2023-01-13T08:54:39.419Z,99234.38
2023-01-13T08:57:06.460Z,99232.54
2023-01-13T08:59:33.909Z,99232.80
2023-01-13T09:02:01.013Z,99231.13
2023-01-13T09:04:28.275Z,99233.59
2023-01-13T09:06:55.239Z,99233.05
2023-01-13T09:09:23.068Z,99235.50
2023-01-13T09:12:09.089Z,99235.73
2023-01-13T09:14:37.219Z,99239.19
2023-01-13T09:17:04.147Z,99234.21
2023-01-13T09:19:30.985Z,99238.47
2023-01-13T09:21:57.949Z,99235.98
2023-01-13T09:24:25.074Z,99237.99
2023-01-13T09:26:52.005Z,99230.90
2023-01-13T09:29:18.951Z,99232.91
2023-01-13T09:31:45.869Z,99234.73
2023-01-13T09:34:36.525Z,99233.77
2023-01-13T09:37:04.312Z,99229.94
2023-01-13T09:39:32.572Z,99231.28
2023-01-13T09:42:22.311Z,99227.20
2023-01-13T09:44:57.675Z,99226.15
2023-01-13T09:47:39.137Z,99229.38
2023-01-13T09:59:54.067Z,99221.40
2023-01-13T10:02:39.687Z,99218.36
2023-01-13T10:05:11.315Z,99216.17
2023-01-13T10:07:42.143Z,99216.77
2023-01-13T10:10:15.735Z,99216.88
2023-01-13T10:13:01.396Z,99211.18
2023-01-13T10:15:28.753Z,99214.33
2023-01-13T10:18:05.268Z,99212.77
2023-01-13T10:20:52.035Z,99212.90
2023-01-13T10:23:38.457Z,99210.67
2023-01-13T10:26:44.045Z,99208.16
2023-01-13T10:29:24.953Z,99205.98
2023-01-13T10:31:53.138Z,99202.20
2023-01-13T10:34:21.097Z,99202.50
2023-01-13T10:37:08.260Z,99200.15
2023-01-13T10:39:40.477Z,99196.64
2023-01-13T10:42:13.359Z,99191.30
2023-01-13T10:44:53.409Z,99188.08
2023-01-13T10:47:42.495Z,99183.98
2023-01-13T10:50:12.644Z,99182.99
2023-01-13T10:52:43.020Z,99182.42
2023-01-13T10:55:31.452Z,99178.78
2023-01-13T10:58:17.095Z,99176.48
2023-01-13T11:00:44.109Z,99174.49
2023-01-13T11:03:17.220Z,99171.52
2023-01-13T11:05:50.908Z,99168.58
2023-01-13T11:08:19.514Z,99171.92
2023-01-13T11:10:49.557Z,99167.52
2023-01-13T11:13:20.155Z,99167.27
2023-01-13T11:15:54.970Z,99164.79
2023-01-13T11:18:30.939Z,99161.77
2023-01-13T11:20:58.189Z,99158.48
2023-01-13T11:23:36.862Z,99148.80
2023-01-13T11:26:10.041Z,99147.98
2023-01-13T11:28:45.970Z,99145.94
2023-01-13T11:31:25.964Z,99141.70
2023-01-13T11:34:03.839Z,99138.08
2023-01-13T11:36:37.272Z,99140.42
2023-01-13T11:39:33.823Z,99130.83
2023-01-13T11:42:23.803Z,99127.06
2023-01-13T11:45:21.371Z,99124.10
2023-01-13T11:47:51.373Z,99132.75
2023-01-13T11:50:30.801Z,99133.42
2023-01-13T11:53:07.207Z,99126.92
2023-01-13T11:55:46.457Z,99126.06
2023-01-13T11:58:49.788Z,99126.84
2023-01-13T12:01:32.997Z,99124.36
2023-01-13T12:04:00.600Z,99117.09
2023-01-13T12:06:32.083Z,99107.19
2023-01-13T12:09:09.276Z,99106.04
2023-01-13T12:12:16.819Z,99113.52
2023-01-13T12:15:22.183Z,99118.41
2023-01-13T12:17:52.394Z,99118.86
2023-01-13T12:20:30.838Z,99118.74
2023-01-13T12:23:01.870Z,99119.38
2023-01-13T12:25:42.328Z,99120.91
2023-01-13T12:28:15.164Z,99121.70
2023-01-13T12:30:44.285Z,99127.27
2023-01-13T12:33:30.992Z,99124.92
2023-01-13T12:36:01.231Z,99123.98
2023-01-13T12:38:36.383Z,99121.91
2023-01-13T12:41:15.392Z,99127.27
2023-01-13T12:44:04.592Z,99125.11
2023-01-13T12:46:31.537Z,99125.09
2023-01-13T12:49:01.619Z,99127.92
2023-01-13T12:51:55.106Z,99119.13
2023-01-13T12:54:40.575Z,99121.98
2023-01-13T12:57:20.838Z,99122.46
2023-01-13T13:00:03.400Z,99115.20
2023-01-13T13:02:34.518Z,99118.02
2023-01-13T13:05:13.698Z,99116.29
2023-01-13T13:07:47.627Z,99115.27
2023-01-13T13:10:28.381Z,99114.80
2023-01-13T13:13:16.341Z,99111.54
2023-01-13T13:15:47.427Z,99120.88
2023-01-13T13:18:17.749Z,99128.11
2023-01-13T13:21:08.175Z,99123.68
2023-01-13T13:23:56.619Z,99123.80
2023-01-13T13:26:37.594Z,99123.16
2023-01-13T13:29:27.892Z,99121.02
2023-01-13T13:32:07.661Z,99119.71
2023-01-13T13:35:12.572Z,99123.65
2023-01-13T13:38:04.403Z,99129.13
2023-01-13T13:40:54.141Z,99127.05
2023-01-13T13:43:39.962Z,99122.45
2023-01-13T13:46:41.823Z,99125.19
2023-01-13T13:49:08.808Z,99120.31
2023-01-13T13:51:41.137Z,99120.47
2023-01-13T13:54:11.275Z,99121.81
2023-01-13T13:56:42.389Z,99123.52
2023-01-13T13:59:15.170Z,99123.86
2023-01-13T14:01:43.730Z,99123.77
2023-01-13T14:04:12.492Z,99126.59
2023-01-13T14:06:50.405Z,99126.48
2023-01-13T14:09:18.784Z,99129.57
2023-01-13T14:12:00.688Z,99126.66
2023-01-13T14:14:27.939Z,99123.61
2023-01-13T14:16:58.161Z,99125.02
2023-01-13T14:19:33.704Z,99127.77
2023-01-13T14:22:02.200Z,99126.20
2023-01-13T14:24:30.262Z,99129.06
2023-01-13T14:27:14.022Z,99129.15
2023-01-13T14:29:40.705Z,99133.83
2023-01-13T14:32:07.748Z,99128.04
2023-01-13T14:34:35.000Z,99128.71
2023-01-13T14:37:25.979Z,99131.16
2023-01-13T14:39:54.124Z,99125.58
2023-01-13T14:42:21.660Z,99129.20
2023-01-13T14:44:50.232Z,99129.96
2023-01-13T14:47:26.418Z,99130.42
2023-01-13T14:50:07.073Z,99133.14
2023-01-13T14:52:36.050Z,99135.84
2023-01-13T14:55:09.622Z,99133.17
2023-01-13T14:57:40.908Z,99126.98
2023-01-13T15:00:14.938Z,99126.58
2023-01-13T15:02:58.110Z,99132.25
2023-01-13T15:05:25.379Z,99137.58
2023-01-13T15:07:53.350Z,99141.90
2023-01-13T15:10:23.776Z,99143.08
2023-01-13T15:12:53.815Z,99155.23
2023-01-13T15:15:36.852Z,99159.16
2023-01-13T15:18:12.325Z,99159.76
2023-01-13T15:20:39.645Z,99158.35
2023-01-13T15:23:07.019Z,99159.91
2023-01-13T15:25:35.397Z,99159.06
2023-01-13T15:28:03.325Z,99153.14
2023-01-13T15:30:30.662Z,99154.70
2023-01-13T15:32:59.343Z,99158.82
2023-01-13T15:35:27.519Z,99160.56
2023-01-13T15:37:55.181Z,99158.86
2023-01-13T15:40:27.938Z,99151.80
2023-01-13T15:43:13.633Z,99150.98
2023-01-13T15:45:59.136Z,99155.17
2023-01-13T15:48:27.707Z,99149.89
2023-01-13T15:50:55.088Z,99153.83
2023-01-13T15:53:22.519Z,99153.71
2023-01-13T15:55:54.786Z,99148.49
2023-01-13T15:58:28.143Z,99152.65
2023-01-13T16:00:56.846Z,99153.93
2023-01-13T16:03:23.976Z,99151.20
2023-01-13T16:05:51.167Z,99160.29
2023-01-13T16:08:21.518Z,99156.61
2023-01-13T16:10:48.956Z,99146.64
2023-01-13T16:13:16.801Z,99146.03
2023-01-13T16:16:05.539Z,99139.48
2023-01-13T16:18:32.720Z,99138.73
2023-01-13T16:20:59.708Z,99147.86
2023-01-13T16:23:26.730Z,99149.77
2023-01-13T16:25:53.826Z,99148.81
2023-01-13T16:28:23.479Z,99148.52
2023-01-13T16:30:50.545Z,99148.45
2023-01-13T16:33:17.965Z,99142.80
2023-01-13T16:36:10.724Z,99138.64
2023-01-13T16:38:32.292Z,99139.13
2023-01-13T16:40:59.852Z,99140.00
2023-01-13T16:43:27.507Z,99144.89
2023-01-13T16:45:54.681Z,99147.15
2023-01-13T16:48:24.488Z,99143.39
2023-01-13T16:50:51.549Z,99147.21
2023-01-13T16:53:18.587Z,99141.83
2023-01-13T16:55:45.631Z,99132.23
2023-01-13T16:58:19.579Z,99137.23
2023-01-13T17:00:47.255Z,99135.50
2023-01-13T17:03:15.358Z,99133.35
2023-01-13T17:05:46.224Z,99130.76
2023-01-13T17:08:20.132Z,99130.50
2023-01-13T17:10:47.237Z,99131.43
2023-01-13T17:13:16.772Z,99132.09
2023-01-13T17:15:45.207Z,99130.11
2023-01-13T17:18:12.852Z,99127.27
2023-01-13T17:20:40.395Z,99122.87
2023-01-13T17:23:07.734Z,99120.77
2023-01-13T17:25:36.390Z,99118.16
2023-01-13T17:28:03.779Z,99119.27
2023-01-13T17:30:31.803Z,99120.11
2023-01-13T17:32:58.918Z,99118.29
2023-01-13T17:35:26.252Z,99120.34
2023-01-13T17:37:54.071Z,99120.51
2023-01-13T17:40:21.302Z,99122.62
2023-01-13T17:42:48.553Z,99122.90
2023-01-13T17:45:18.222Z,99122.66
2023-01-13T17:47:47.351Z,99124.21
2023-01-13T17:50:19.031Z,99123.08
2023-01-13T17:52:46.225Z,99122.65
2023-01-13T17:55:13.265Z,99114.83
2023-01-13T17:57:40.153Z,99117.16
2023-01-13T18:00:08.488Z,99120.63
2023-01-13T18:02:42.108Z,99115.08
2023-01-13T18:05:09.354Z,99115.26
2023-01-13T18:07:36.365Z,99115.00
2023-01-13T18:10:04.912Z,99117.88
2023-01-13T18:12:34.256Z,99115.70
2023-01-13T18:15:01.682Z,99112.98
2023-01-13T18:17:29.083Z,99111.55
2023-01-13T18:20:15.278Z,99112.68
2023-01-13T18:23:01.282Z,99115.39
2023-01-13T18:25:46.760Z,99119.42
2023-01-13T18:28:13.821Z,99113.41
2023-01-13T18:30:40.971Z,99108.83
2023-01-13T18:33:09.630Z,99105.87
2023-01-13T18:35:38.739Z,99107.73
2023-01-13T18:38:06.819Z,99107.86
2023-01-13T18:40:34.249Z,99114.58
2023-01-13T18:43:01.598Z,99115.32
2023-01-13T18:45:30.625Z,99115.38
2023-01-13T18:47:59.587Z,99111.13
2023-01-13T18:50:27.863Z,99118.42
2023-01-13T18:52:55.020Z,99115.10
2023-01-13T18:55:22.776Z,99118.70
2023-01-13T18:57:51.699Z,99121.56
2023-01-13T19:00:19.447Z,99126.31
2023-01-13T19:11:46.877Z,99129.52
2023-01-13T19:14:34.231Z,99125.38
2023-01-13T19:17:09.056Z,99125.23
2023-01-13T19:19:40.016Z,99124.11
2023-01-13T19:22:07.523Z,99126.23
2023-01-13T19:24:34.746Z,99125.23
2023-01-13T19:27:02.102Z,99123.03
2023-01-13T19:29:33.130Z,99127.11
2023-01-13T19:32:00.910Z,99128.69
2023-01-13T19:34:28.177Z,99129.04
2023-01-13T19:36:56.775Z,99136.52
2023-01-13T19:39:23.865Z,99133.72
2023-01-13T19:42:09.881Z,99137.11
2023-01-13T19:44:55.668Z,99139.30
2023-01-13T19:47:23.124Z,99130.81
2023-01-13T19:49:50.272Z,99131.15
2023-01-13T19:52:17.525Z,99129.48
2023-01-13T19:54:45.434Z,99125.36
2023-01-13T19:57:12.744Z,99136.14
2023-01-13T19:59:42.970Z,99128.94
2023-01-13T20:02:28.134Z,99132.45
2023-01-13T20:04:56.341Z,99133.15
2023-01-13T20:07:27.563Z,99133.40
2023-01-13T20:09:56.452Z,99141.73
2023-01-13T20:12:24.622Z,99145.30
2023-01-13T20:14:51.901Z,99143.46
2023-01-13T20:17:20.046Z,99138.41
2023-01-13T20:19:47.203Z,99139.29
2023-01-13T20:22:14.448Z,99140.30
2023-01-13T20:24:41.510Z,99137.86
2023-01-13T20:27:08.547Z,99136.63
2023-01-13T20:29:35.633Z,99135.42
2023-01-13T20:32:02.973Z,99136.46
2023-01-13T20:34:29.884Z,99138.18
2023-01-13T20:36:56.839Z,99139.36
2023-01-13T20:39:26.494Z,99137.84
2023-01-13T20:42:12.639Z,99130.55
2023-01-13T20:44:39.836Z,99133.38
2023-01-13T20:47:07.241Z,99139.80
2023-01-13T20:49:36.231Z,99140.11
2023-01-13T20:52:09.422Z,99142.48
2023-01-13T20:54:37.333Z,99140.33
2023-01-13T20:57:05.465Z,99138.31
2023-01-13T20:59:32.496Z,99138.19
2023-01-13T21:01:59.661Z,99142.02
2023-01-13T21:04:26.722Z,99140.13
2023-01-13T21:06:54.829Z,99137.13
2023-01-13T21:09:23.627Z,99138.52
2023-01-13T21:12:09.566Z,99140.98
2023-01-13T21:14:56.271Z,99137.73
2023-01-13T21:17:41.986Z,99133.14
2023-01-13T21:20:10.793Z,99138.15
2023-01-13T21:22:39.014Z,99136.86
2023-01-13T21:25:06.804Z,99141.02
2023-01-13T21:27:34.766Z,99140.35
2023-01-13T21:30:01.739Z,99137.29
2023-01-13T21:32:28.749Z,99139.86
2023-01-13T21:34:55.683Z,99137.41
2023-01-13T21:37:22.844Z,99137.21
2023-01-13T21:39:49.784Z,99143.73
2023-01-13T21:42:36.187Z,99139.75
2023-01-13T21:45:22.514Z,99138.58
2023-01-13T21:47:49.541Z,99140.73
2023-01-13T21:50:18.476Z,99145.63
2023-01-13T21:52:45.671Z,99148.23
2023-01-13T21:55:25.325Z,99154.48
2023-01-13T21:57:53.569Z,99154.98
2023-01-13T22:00:22.285Z,99159.96
2023-01-13T22:02:49.480Z,99156.05
2023-01-13T22:05:18.146Z,99159.09
2023-01-13T22:07:45.071Z,99155.45
2023-01-13T22:10:17.018Z,99159.14
2023-01-13T22:12:44.175Z,99158.75
2023-01-13T22:15:13.091Z,99151.77
2023-01-13T22:17:41.312Z,99152.27
2023-01-13T22:20:10.270Z,99148.86
2023-01-13T22:22:37.271Z,99149.73
2023-01-13T22:25:07.146Z,99150.55
2023-01-13T22:27:39.571Z,99150.82
2023-01-13T22:30:13.937Z,99147.45
2023-01-13T22:32:40.921Z,99154.13
2023-01-13T22:35:09.083Z,99147.94
2023-01-13T22:37:36.148Z,99144.40
2023-01-13T22:40:04.559Z,99146.08
2023-01-13T22:42:31.395Z,99147.33
2023-01-13T22:44:58.205Z,99139.55
2023-01-13T22:47:25.364Z,99145.79
2023-01-13T22:49:52.488Z,99154.23
2023-01-13T22:52:19.551Z,99157.67
2023-01-13T22:54:46.598Z,99150.20
2023-01-13T22:57:13.640Z,99146.66
2023-01-13T22:59:41.104Z,99145.42
2023-01-13T23:02:07.960Z,99145.67
2023-01-13T23:04:35.158Z,99141.46
2023-01-13T23:07:02.156Z,99142.73
2023-01-13T23:09:30.171Z,99136.33
2023-01-13T23:11:58.595Z,99139.44
2023-01-13T23:14:25.638Z,99139.55
2023-01-13T23:16:52.904Z,99138.11
2023-01-13T23:19:20.147Z,99132.19
2023-01-13T23:21:47.133Z,99130.89
2023-01-13T23:24:14.071Z,99130.66
2023-01-13T23:26:40.942Z,99136.05
2023-01-13T23:29:09.790Z,99134.56
2023-01-13T23:31:36.806Z,99137.81
2023-01-13T23:34:03.754Z,99138.79
2023-01-13T23:36:31.001Z,99139.84
2023-01-13T23:38:58.680Z,99141.31
2023-01-13T23:41:26.166Z,99137.06
2023-01-13T23:43:57.792Z,99137.10
2023-01-13T23:46:24.939Z,99138.30
2023-01-13T23:48:52.012Z,99135.71
2023-01-13T23:51:21.116Z,99138.86
2023-01-13T23:53:49.010Z,99130.40
2023-01-13T23:56:20.827Z,99130.85
2023-01-13T23:58:47.929Z,99131.02
